createdAt,value
2022-08-09T00:00:05.923Z,19.40
2022-08-09T00:02:34.360Z,19.40
2022-08-09T00:06:15.687Z,19.40
2022-08-09T00:07:48.966Z,19.40
2022-08-09T00:10:21.605Z,19.30
2022-08-09T00:12:52.310Z,19.30
2022-08-09T00:15:26.484Z,19.30
2022-08-09T00:18:05.104Z,19.30
2022-08-09T00:20:42.268Z,19.30
2022-08-09T00:23:55.606Z,19.20
2022-08-09T00:26:08.278Z,19.20
2022-08-09T00:28:38.169Z,19.20
2022-08-09T00:31:30.385Z,19.10
2022-08-09T00:33:55.177Z,19.10
2022-08-09T00:36:29.859Z,19.00
2022-08-09T00:38:58.569Z,19.00
2022-08-09T00:44:15.772Z,19.00
2022-08-09T00:44:26.383Z,19.00
2022-08-09T00:47:01.616Z,19.00
2022-08-09T00:49:36.877Z,18.90
2022-08-09T00:52:06.035Z,18.90
2022-08-09T00:54:43.173Z,18.90
2022-08-09T00:57:12.095Z,18.80
2022-08-09T00:59:46.355Z,18.80
2022-08-09T01:02:20.901Z,18.80
2022-08-09T01:04:57.854Z,18.80
2022-08-09T01:07:59.993Z,18.70
2022-08-09T01:10:51.214Z,18.70
2022-08-09T01:13:25.037Z,18.70
2022-08-09T01:16:09.172Z,18.60
2022-08-09T01:18:41.227Z,18.60
2022-08-09T01:21:44.594Z,18.60
2022-08-09T01:24:39.140Z,18.60
2022-08-09T01:27:08.078Z,18.50
2022-08-09T01:29:55.069Z,18.50
2022-08-09T01:32:37.747Z,18.50
2022-08-09T01:35:28.281Z,18.40
2022-08-09T01:38:10.095Z,18.40
2022-08-09T01:40:53.155Z,18.40
2022-08-09T01:43:41.875Z,18.40
2022-08-09T01:46:23.901Z,18.40
2022-08-09T01:48:52.808Z,18.30
2022-08-09T01:51:22.699Z,18.40
2022-08-09T01:53:50.519Z,18.30
2022-08-09T01:56:20.800Z,18.20
2022-08-09T01:58:48.978Z,18.30
2022-08-09T02:01:18.081Z,18.20
2022-08-09T02:03:46.143Z,18.20
2022-08-09T02:06:14.570Z,18.20
2022-08-09T02:08:58.494Z,18.20
2022-08-09T02:11:42.168Z,18.10
2022-08-09T02:14:10.659Z,18.10
2022-08-09T02:16:59.728Z,18.10
2022-08-09T02:19:38.542Z,18.00
2022-08-09T02:22:31.468Z,18.10
2022-08-09T02:25:03.174Z,18.00
2022-08-09T02:27:58.139Z,17.90
2022-08-09T02:30:18.496Z,18.00
2022-08-09T02:32:46.347Z,17.90
2022-08-09T02:36:01.271Z,18.00
2022-08-09T02:38:12.224Z,17.90
2022-08-09T02:40:56.394Z,17.90
2022-08-09T02:43:24.225Z,17.90
2022-08-09T02:45:55.724Z,17.90
2022-08-09T02:48:31.065Z,17.80
2022-08-09T02:50:59.695Z,17.80
2022-08-09T02:53:31.786Z,17.80
2022-08-09T02:56:01.732Z,17.80
2022-08-09T02:58:36.849Z,17.70
2022-08-09T03:01:06.244Z,17.80
2022-08-09T03:04:12.215Z,17.70
2022-08-09T03:06:22.450Z,17.70
2022-08-09T03:08:49.492Z,17.70
2022-08-09T03:11:29.655Z,17.70
2022-08-09T03:14:04.855Z,17.70
2022-08-09T03:16:32.265Z,17.60
2022-08-09T03:19:01.589Z,17.60
2022-08-09T03:21:28.978Z,17.60
2022-08-09T03:24:06.522Z,17.50
2022-08-09T03:26:36.940Z,17.50
2022-08-09T03:29:22.681Z,17.50
2022-08-09T03:32:00.273Z,17.50
2022-08-09T03:34:27.787Z,17.50
2022-08-09T03:36:59.803Z,17.40
2022-08-09T03:39:37.678Z,17.40
2022-08-09T03:42:06.760Z,17.40
2022-08-09T03:44:34.046Z,17.50
2022-08-09T03:47:03.558Z,17.40
2022-08-09T03:49:32.874Z,17.40
2022-08-09T03:52:03.835Z,17.40
2022-08-09T03:54:38.372Z,17.40
2022-08-09T03:57:12.443Z,17.30
2022-08-09T03:59:54.497Z,17.30
2022-08-09T04:02:30.016Z,17.30
2022-08-09T04:04:58.991Z,17.20
2022-08-09T04:07:33.638Z,17.20
2022-08-09T04:10:20.348Z,17.20
2022-08-09T04:12:49.732Z,17.20
2022-08-09T04:15:38.892Z,17.20
2022-08-09T04:18:05.082Z,17.10
2022-08-09T04:20:33.735Z,17.10
2022-08-09T04:23:01.939Z,17.10
2022-08-09T04:25:29.500Z,17.10
2022-08-09T04:28:02.506Z,17.00
2022-08-09T04:30:31.915Z,17.00
2022-08-09T04:33:00.268Z,17.00
2022-08-09T04:35:29.395Z,17.00
2022-08-09T04:38:03.700Z,17.00
2022-08-09T04:40:48.345Z,17.00
2022-08-09T04:43:23.263Z,17.00
2022-08-09T04:45:53.086Z,16.90
2022-08-09T04:48:21.637Z,16.90
2022-08-09T04:50:50.911Z,16.90
2022-08-09T04:53:20.819Z,16.90
2022-08-09T04:55:57.922Z,16.90
2022-08-09T04:58:29.829Z,16.90
2022-08-09T05:00:59.270Z,16.80
2022-08-09T05:03:40.896Z,16.80
2022-08-09T05:06:25.870Z,16.80
2022-08-09T05:09:00.235Z,16.80
2022-08-09T05:11:30.509Z,16.80
2022-08-09T05:13:59.776Z,16.80
2022-08-09T05:16:28.562Z,16.80
2022-08-09T05:19:00.320Z,16.80
2022-08-09T05:21:29.901Z,16.90
2022-08-09T05:24:01.566Z,16.90
2022-08-09T05:26:45.671Z,16.90
2022-08-09T05:29:17.397Z,16.90
2022-08-09T05:31:47.557Z,16.90
2022-08-09T05:34:23.460Z,16.90
2022-08-09T05:37:01.764Z,16.90
2022-08-09T05:39:36.507Z,16.90
2022-08-09T05:42:10.319Z,17.00
2022-08-09T05:44:50.849Z,17.00
2022-08-09T05:47:22.822Z,17.00
2022-08-09T05:50:25.766Z,17.00
2022-08-09T05:52:38.766Z,17.10
2022-08-09T05:55:07.513Z,17.10
2022-08-09T05:57:51.280Z,17.20
2022-08-09T06:00:23.393Z,17.20
2022-08-09T06:02:54.304Z,17.20
2022-08-09T06:05:30.915Z,17.30
2022-08-09T06:08:11.617Z,17.30
2022-08-09T06:10:38.852Z,17.40
2022-08-09T06:13:18.346Z,17.40
2022-08-09T06:15:47.242Z,17.60
2022-08-09T06:18:23.895Z,17.70
2022-08-09T06:20:54.928Z,17.80
2022-08-09T06:23:55.209Z,17.90
2022-08-09T06:26:21.241Z,18.00
2022-08-09T06:29:01.040Z,18.20
2022-08-09T06:31:39.641Z,18.30
2022-08-09T06:34:26.287Z,18.40
2022-08-09T06:37:03.173Z,18.60
2022-08-09T06:39:58.155Z,18.70
2022-08-09T06:42:30.921Z,18.80
2022-08-09T06:47:58.026Z,19.00
2022-08-09T06:50:31.100Z,19.10
2022-08-09T06:53:50.079Z,19.20
2022-08-09T06:56:46.397Z,19.30
2022-08-09T07:00:54.213Z,19.40
2022-08-09T07:02:29.445Z,19.50
2022-08-09T07:06:04.412Z,19.60
2022-08-09T07:08:33.940Z,19.70
2022-08-09T07:11:17.714Z,19.70
2022-08-09T07:17:20.285Z,19.90
2022-08-09T07:20:14.709Z,20.00
2022-08-09T07:30:08.052Z,20.30
2022-08-09T07:52:21.359Z,21.00
2022-08-09T07:58:37.499Z,20.90
2022-08-09T08:01:11.009Z,20.90
2022-08-09T08:06:37.369Z,21.00
2022-08-09T08:09:34.499Z,21.20
2022-08-09T08:12:24.113Z,21.40
2022-08-09T08:14:59.829Z,21.60
2022-08-09T08:17:52.184Z,21.80
2022-08-09T08:20:30.105Z,22.00
2022-08-09T08:23:16.683Z,22.20
2022-08-09T08:25:48.537Z,22.30
2022-08-09T08:28:18.244Z,22.50
2022-08-09T08:30:53.499Z,22.60
2022-08-09T08:33:52.981Z,22.70
2022-08-09T08:36:29.604Z,22.90
2022-08-09T08:39:04.061Z,23.00
2022-08-09T08:41:50.573Z,23.10
2022-08-09T08:44:23.112Z,23.20
2022-08-09T08:47:03.320Z,23.20
2022-08-09T08:49:38.308Z,23.30
2022-08-09T08:52:34.977Z,23.40
2022-08-09T08:54:55.750Z,23.40
2022-08-09T08:57:30.020Z,23.50
2022-08-09T09:00:13.104Z,23.40
2022-08-09T09:03:11.102Z,23.50
2022-08-09T09:06:05.094Z,23.60
2022-08-09T09:08:41.002Z,23.60
2022-08-09T09:11:13.544Z,23.70
2022-08-09T09:13:55.712Z,23.80
2022-08-09T09:16:51.730Z,23.90
2022-08-09T09:19:40.192Z,23.90
2022-08-09T09:22:16.416Z,23.90
2022-08-09T09:24:47.436Z,24.00
2022-08-09T09:28:03.563Z,23.90
2022-08-09T09:30:39.828Z,24.00
2022-08-09T09:33:14.352Z,24.00
2022-08-09T09:36:01.864Z,24.00
2022-08-09T09:38:42.699Z,24.10
2022-08-09T09:41:10.804Z,24.00
2022-08-09T09:44:15.675Z,24.10
2022-08-09T09:47:16.634Z,24.20
2022-08-09T09:50:07.007Z,24.40
2022-08-09T09:52:58.200Z,24.50
2022-08-09T09:55:32.909Z,24.50
2022-08-09T09:58:19.194Z,24.60
2022-08-09T10:01:00.054Z,24.70
2022-08-09T10:03:57.044Z,24.80
2022-08-09T10:07:03.646Z,24.90
2022-08-09T10:09:57.120Z,25.00
2022-08-09T10:12:31.500Z,25.00
2022-08-09T10:15:17.464Z,25.00
2022-08-09T10:18:14.857Z,25.10
2022-08-09T10:20:46.223Z,25.10
2022-08-09T10:23:20.009Z,25.10
2022-08-09T10:26:07.258Z,25.20
2022-08-09T10:30:43.980Z,25.20
2022-08-09T10:35:06.753Z,25.40
2022-08-09T10:37:46.491Z,25.40
2022-08-09T10:40:33.676Z,25.40
2022-08-09T10:43:02.851Z,25.40
2022-08-09T10:45:31.944Z,25.50
2022-08-09T10:48:20.479Z,25.40
2022-08-09T10:51:09.365Z,25.50
2022-08-09T10:53:46.772Z,25.50
2022-08-09T10:56:26.063Z,25.50
2022-08-09T10:58:54.297Z,25.50
2022-08-09T11:03:15.571Z,25.60
2022-08-09T11:04:32.718Z,25.60
2022-08-09T11:07:09.252Z,25.60
2022-08-09T11:09:47.695Z,25.60
2022-08-09T11:12:29.759Z,25.70
2022-08-09T11:14:58.760Z,25.80
2022-08-09T11:17:26.505Z,25.80
2022-08-09T11:20:10.481Z,25.80
2022-08-09T11:22:58.451Z,25.80
2022-08-09T11:32:48.934Z,26.10
2022-08-09T11:35:35.326Z,26.10
2022-08-09T11:38:33.053Z,26.20
2022-08-09T11:41:42.688Z,26.20
2022-08-09T11:48:19.204Z,26.40
2022-08-09T11:54:45.555Z,26.40
2022-08-09T11:57:47.575Z,26.40
2022-08-09T12:00:27.336Z,26.40
2022-08-09T12:02:55.935Z,26.40
2022-08-09T12:05:24.519Z,26.30
2022-08-09T12:07:52.775Z,26.40
2022-08-09T12:10:38.351Z,26.40
2022-08-09T12:14:08.295Z,26.40
2022-08-09T12:16:37.623Z,26.40
2022-08-09T12:19:12.011Z,26.40
2022-08-09T12:21:50.808Z,26.50
2022-08-09T12:24:34.049Z,26.50
2022-08-09T12:29:14.886Z,26.50
2022-08-09T12:30:01.562Z,26.50
2022-08-09T12:32:45.205Z,26.60
2022-08-09T12:35:21.639Z,26.60
2022-08-09T12:37:51.714Z,26.50
2022-08-09T12:40:23.243Z,26.60
2022-08-09T12:42:51.928Z,26.60
2022-08-09T12:45:34.534Z,26.60
2022-08-09T12:48:07.941Z,26.60
2022-08-09T12:50:47.726Z,26.60
2022-08-09T12:53:37.749Z,26.70
2022-08-09T12:56:39.381Z,26.60
2022-08-09T12:59:09.397Z,26.70
2022-08-09T13:01:38.443Z,26.70
2022-08-09T13:04:27.551Z,26.70
2022-08-09T13:07:19.616Z,26.70
2022-08-09T13:09:55.268Z,26.70
2022-08-09T13:12:25.266Z,26.70
2022-08-09T13:14:55.013Z,26.60
2022-08-09T13:17:44.457Z,26.70
2022-08-09T13:20:16.204Z,26.60
2022-08-09T13:23:05.463Z,26.70
2022-08-09T13:25:54.973Z,26.70
2022-08-09T13:28:33.868Z,26.80
2022-08-09T13:32:14.333Z,26.80
2022-08-09T13:33:54.396Z,26.80
2022-08-09T13:36:41.223Z,26.80
2022-08-09T13:41:46.130Z,26.90
2022-08-09T13:42:12.462Z,26.90
2022-08-09T13:44:42.727Z,26.90
2022-08-09T13:47:29.478Z,26.90
2022-08-09T13:50:04.277Z,26.90
2022-08-09T13:52:40.179Z,26.90
2022-08-09T13:55:13.815Z,26.90
2022-08-09T13:57:56.068Z,26.90
2022-08-09T14:00:28.490Z,26.90
2022-08-09T14:03:16.967Z,26.90
2022-08-09T14:05:59.716Z,27.00
2022-08-09T14:08:28.373Z,27.00
2022-08-09T14:10:55.779Z,27.00
2022-08-09T14:14:15.971Z,26.90
2022-08-09T14:16:13.786Z,26.80
2022-08-09T14:18:49.534Z,26.90
2022-08-09T14:21:21.006Z,26.90
2022-08-09T14:23:56.636Z,26.90
2022-08-09T14:26:31.569Z,26.90
2022-08-09T14:30:03.981Z,26.90
2022-08-09T14:32:11.404Z,26.90
2022-08-09T14:43:56.155Z,26.80
2022-08-09T14:46:54.603Z,26.80
2022-08-09T14:49:18.662Z,26.80
2022-08-09T14:52:05.841Z,26.80
2022-08-09T14:54:36.995Z,26.80
2022-08-09T14:57:08.800Z,26.80
2022-08-09T14:59:48.446Z,26.80
2022-08-09T15:02:18.411Z,26.80
2022-08-09T15:04:50.121Z,26.80
2022-08-09T15:07:18.381Z,26.90
2022-08-09T15:10:07.411Z,26.90
2022-08-09T15:12:35.257Z,26.90
2022-08-09T15:15:04.849Z,26.90
2022-08-09T15:17:42.550Z,26.80
2022-08-09T15:21:55.138Z,26.80
2022-08-09T15:24:00.708Z,26.80
2022-08-09T15:26:18.528Z,26.70
2022-08-09T15:28:57.710Z,26.70
2022-08-09T15:31:41.327Z,26.70
2022-08-09T15:34:31.106Z,26.70
2022-08-09T15:36:58.249Z,26.70
2022-08-09T15:39:25.924Z,26.70
2022-08-09T15:42:02.677Z,26.70
2022-08-09T15:44:32.660Z,26.70
2022-08-09T15:47:05.253Z,26.60
2022-08-09T15:50:00.556Z,26.70
2022-08-09T15:52:35.220Z,26.70
2022-08-09T15:56:19.840Z,26.70
2022-08-09T16:01:08.057Z,26.60
2022-08-09T16:03:38.110Z,26.60
2022-08-09T16:06:35.536Z,26.60
2022-08-09T16:09:17.152Z,26.60
2022-08-09T16:11:58.771Z,26.60
2022-08-09T16:14:32.703Z,26.60
2022-08-09T16:17:00.144Z,26.60
2022-08-09T16:20:12.742Z,26.60
2022-08-09T16:22:53.527Z,26.60
2022-08-09T16:25:40.483Z,26.60
2022-08-09T16:28:29.860Z,26.60
2022-08-09T16:30:58.662Z,26.60
2022-08-09T16:33:31.021Z,26.50
2022-08-09T16:36:11.902Z,26.40
2022-08-09T16:38:46.315Z,26.40
2022-08-09T16:41:23.295Z,26.30
2022-08-09T16:44:36.345Z,26.30
2022-08-09T16:50:58.822Z,26.20
2022-08-09T16:56:49.231Z,26.20
2022-08-09T16:59:57.439Z,26.20
2022-08-09T17:02:48.785Z,26.10
2022-08-09T17:05:20.057Z,26.10
2022-08-09T17:10:57.762Z,26.00
2022-08-09T17:13:37.398Z,26.00
2022-08-09T17:18:58.393Z,26.00
2022-08-09T17:22:24.437Z,25.90
2022-08-09T17:25:10.123Z,25.90
2022-08-09T17:27:49.234Z,25.90
2022-08-09T17:30:37.459Z,25.80
2022-08-09T17:33:22.542Z,25.80
2022-08-09T17:35:50.585Z,25.60
2022-08-09T17:38:33.937Z,25.60
2022-08-09T17:41:08.811Z,25.50
2022-08-09T17:43:39.543Z,25.50
2022-08-09T17:46:09.995Z,25.50
2022-08-09T17:48:51.520Z,25.40
2022-08-09T17:51:25.921Z,25.40
2022-08-09T17:54:05.270Z,25.40
2022-08-09T17:56:49.912Z,25.30
2022-08-09T17:59:19.817Z,25.30
2022-08-09T18:02:06.117Z,25.20
2022-08-09T18:04:38.432Z,25.20
2022-08-09T18:07:07.823Z,25.10
2022-08-09T18:09:40.560Z,25.10
2022-08-09T18:12:20.177Z,25.00
2022-08-09T18:15:03.041Z,25.00
2022-08-09T18:18:01.898Z,24.90
2022-08-09T18:20:54.792Z,24.80
2022-08-09T18:24:08.871Z,24.80
2022-08-09T18:26:00.544Z,24.70
2022-08-09T18:30:41.262Z,24.70
2022-08-09T18:32:07.943Z,24.70
2022-08-09T18:34:48.985Z,24.60
2022-08-09T18:37:47.785Z,24.50
2022-08-09T18:40:03.579Z,24.50
2022-08-09T18:42:43.831Z,24.40
2022-08-09T18:46:44.494Z,24.40
2022-08-09T18:48:11.929Z,24.40
2022-08-09T18:50:44.975Z,24.20
2022-08-09T18:53:17.138Z,24.20
2022-08-09T18:59:21.060Z,24.10
2022-08-09T19:02:00.694Z,24.00
2022-08-09T19:08:18.568Z,23.90
2022-08-09T19:11:12.578Z,23.90
2022-08-09T19:29:30.299Z,23.60
2022-08-09T19:56:44.753Z,23.00
2022-08-09T19:59:39.599Z,23.00
2022-08-09T20:02:07.462Z,22.90
2022-08-09T20:04:52.985Z,22.80
2022-08-09T20:07:25.212Z,22.70
2022-08-09T20:10:06.908Z,22.60
2022-08-09T20:12:45.895Z,22.50
2022-08-09T20:16:32.045Z,22.40
2022-08-09T20:18:01.306Z,22.30
2022-08-09T20:20:31.572Z,22.20
2022-08-09T20:22:58.667Z,22.20
2022-08-09T20:25:27.242Z,22.10
2022-08-09T20:27:54.445Z,22.00
2022-08-09T20:30:25.947Z,22.00
2022-08-09T20:32:53.048Z,21.90
2022-08-09T20:35:25.847Z,21.90
2022-08-09T20:38:22.293Z,21.80
2022-08-09T20:40:44.692Z,21.80
2022-08-09T20:43:18.949Z,21.70
2022-08-09T20:46:33.834Z,21.70
2022-08-09T20:48:50.728Z,21.60
2022-08-09T20:51:24.317Z,21.50
2022-08-09T20:53:51.320Z,21.50
2022-08-09T20:56:21.891Z,21.50
2022-08-09T20:58:54.757Z,21.40
2022-08-09T21:01:32.490Z,21.40
2022-08-09T21:04:08.181Z,21.40
2022-08-09T21:06:53.066Z,21.40
2022-08-09T21:09:32.736Z,21.30
2022-08-09T21:14:39.742Z,21.20
2022-08-09T21:18:21.162Z,21.20
2022-08-09T21:20:18.436Z,21.10
2022-08-09T21:22:46.937Z,21.10
2022-08-09T21:25:38.187Z,21.00
2022-08-09T21:28:07.067Z,21.00
2022-08-09T21:30:34.155Z,21.00
2022-08-09T21:33:06.479Z,20.90
2022-08-09T21:35:40.611Z,20.90
2022-08-09T21:38:09.052Z,20.80
2022-08-09T21:40:37.192Z,20.80
2022-08-09T21:43:06.389Z,20.80
2022-08-09T21:45:38.870Z,20.80
2022-08-09T21:48:06.710Z,20.70
2022-08-09T21:50:38.576Z,20.70
2022-08-09T21:53:06.873Z,20.60
2022-08-09T21:55:47.026Z,20.60
2022-08-09T21:58:14.175Z,20.60
2022-08-09T22:00:41.709Z,20.50
2022-08-09T22:03:19.399Z,20.50
2022-08-09T22:05:52.306Z,20.40
2022-08-09T22:08:19.470Z,20.40
2022-08-09T22:11:49.498Z,20.30
2022-08-09T22:13:37.479Z,20.30
2022-08-09T22:16:07.342Z,20.30
2022-08-09T22:18:35.407Z,20.20
2022-08-09T22:21:09.926Z,20.20
2022-08-09T22:23:59.979Z,20.20
2022-08-09T22:26:35.004Z,20.10
2022-08-09T22:29:07.575Z,20.10
2022-08-09T22:31:37.115Z,20.00
2022-08-09T22:34:09.837Z,20.00
2022-08-09T22:36:46.437Z,20.00
2022-08-09T22:39:46.836Z,19.90
2022-08-09T22:42:02.643Z,19.90
2022-08-09T22:44:32.716Z,19.90
2022-08-09T22:48:10.962Z,19.80
2022-08-09T22:49:47.822Z,19.80
2022-08-09T22:52:19.652Z,19.80
2022-08-09T22:54:47.462Z,19.70
2022-08-09T22:57:14.605Z,19.70
2022-08-09T22:59:57.611Z,19.70
2022-08-09T23:02:27.377Z,19.60
2022-08-09T23:04:54.833Z,19.60
2022-08-09T23:08:21.776Z,19.60
2022-08-09T23:10:30.517Z,19.60
2022-08-09T23:12:57.947Z,19.50
2022-08-09T23:15:24.966Z,19.50
2022-08-09T23:17:52.028Z,19.40
2022-08-09T23:20:19.013Z,19.40
2022-08-09T23:22:46.044Z,19.40
2022-08-09T23:25:13.095Z,19.30
2022-08-09T23:28:00.570Z,19.30
2022-08-09T23:30:27.034Z,19.30
2022-08-09T23:32:54.004Z,19.30
2022-08-09T23:35:20.916Z,19.20
2022-08-09T23:37:47.903Z,19.20
2022-08-09T23:40:17.121Z,19.20
2022-08-09T23:42:44.051Z,19.20
2022-08-09T23:45:11.292Z,19.20
2022-08-09T23:47:58.298Z,19.10
2022-08-09T23:50:25.291Z,19.10
2022-08-09T23:52:52.231Z,19.10
2022-08-09T23:55:19.278Z,19.10
2022-08-09T23:57:59.044Z,19.00
